createdAt,value
2018-03-03T00:00:25.928Z,33.72
2018-03-03T00:02:54.587Z,34.50
2018-03-03T00:05:24.020Z,36.97
2018-03-03T00:07:52.685Z,37.70
2018-03-03T00:10:21.344Z,34.13
2018-03-03T00:12:50.015Z,37.45
2018-03-03T00:15:18.664Z,40.53
2018-03-03T00:17:47.336Z,40.20
2018-03-03T00:20:15.989Z,39.58
2018-03-03T00:22:44.681Z,39.60
2018-03-03T00:25:13.364Z,36.20
2018-03-03T00:27:42.020Z,35.22
2018-03-03T00:32:45.717Z,32.55
2018-03-03T00:35:15.189Z,33.67
2018-03-03T00:37:43.939Z,34.22
2018-03-03T00:40:12.619Z,35.63
2018-03-03T00:42:41.336Z,35.47
2018-03-03T00:45:09.986Z,37.08
2018-03-03T00:47:38.700Z,36.53
2018-03-03T00:50:07.355Z,39.85
2018-03-03T00:52:36.057Z,38.85
2018-03-03T00:55:04.817Z,36.67
2018-03-03T00:57:34.285Z,36.85
2018-03-03T01:00:03.192Z,35.63
2018-03-03T01:02:31.850Z,36.90
2018-03-03T01:05:00.521Z,36.17
2018-03-03T01:07:29.202Z,40.55
2018-03-03T01:09:57.866Z,38.30
2018-03-03T01:12:26.279Z,34.80
2018-03-03T01:14:55.449Z,37.20
2018-03-03T01:17:24.099Z,37.20
2018-03-03T01:19:52.513Z,36.13
2018-03-03T01:22:21.152Z,40.33
2018-03-03T01:24:49.829Z,40.45
2018-03-03T01:27:18.480Z,35.17
2018-03-03T01:29:47.152Z,35.42
2018-03-03T01:32:15.825Z,35.35
2018-03-03T01:34:44.216Z,31.23
2018-03-03T01:37:12.617Z,35.57
2018-03-03T01:39:41.268Z,33.20
2018-03-03T01:42:09.941Z,34.10
2018-03-03T01:44:39.356Z,38.65
2018-03-03T01:47:08.027Z,42.33
2018-03-03T01:49:37.454Z,37.95
2018-03-03T01:52:06.217Z,40.75
2018-03-03T01:54:35.633Z,37.88
2018-03-03T01:57:04.317Z,36.67
2018-03-03T01:59:33.043Z,38.03
2018-03-03T02:02:02.625Z,38.20
2018-03-03T02:04:31.279Z,37.17
2018-03-03T02:07:00.709Z,37.65
2018-03-03T02:09:29.373Z,34.08
2018-03-03T02:11:58.804Z,31.70
2018-03-03T02:14:27.125Z,31.62
2018-03-03T02:16:56.230Z,34.53
2018-03-03T02:19:24.871Z,36.60
2018-03-03T02:21:53.541Z,36.47
2018-03-03T02:24:22.214Z,37.85
2018-03-03T02:26:50.597Z,34.77
2018-03-03T02:29:19.276Z,35.60
2018-03-03T02:31:47.946Z,36.30
2018-03-03T02:34:17.369Z,36.08
2018-03-03T02:36:46.032Z,36.40
2018-03-03T02:39:15.117Z,37.83
2018-03-03T02:41:43.786Z,35.70
2018-03-03T02:44:12.500Z,37.10
2018-03-03T02:46:41.925Z,36.33
2018-03-03T02:49:10.594Z,32.35
2018-03-03T02:51:39.449Z,36.13
2018-03-03T02:54:09.062Z,34.55
2018-03-03T02:56:38.519Z,32.25
2018-03-03T02:59:07.124Z,30.80
2018-03-03T03:01:35.817Z,33.17
2018-03-03T03:04:04.508Z,31.50
2018-03-03T03:06:33.182Z,33.15
2018-03-03T03:09:01.840Z,34.55
2018-03-03T03:11:30.476Z,35.72
2018-03-03T03:13:59.134Z,32.03
2018-03-03T03:16:27.881Z,37.35
2018-03-03T03:18:56.954Z,34.58
2018-03-03T03:21:26.384Z,33.95
2018-03-03T03:23:55.041Z,37.15
2018-03-03T03:26:24.184Z,38.67
2018-03-03T03:28:52.840Z,35.00
2018-03-03T03:31:22.270Z,33.03
2018-03-03T03:33:51.022Z,35.75
2018-03-03T03:36:20.438Z,35.50
2018-03-03T03:38:49.169Z,40.70
2018-03-03T03:41:17.836Z,35.63
2018-03-03T03:43:46.514Z,33.85
2018-03-03T03:46:15.174Z,35.33
2018-03-03T03:48:43.860Z,39.55
2018-03-03T03:51:13.276Z,32.88
2018-03-03T03:53:41.921Z,31.60
2018-03-03T03:56:10.599Z,32.90
2018-03-03T03:58:39.836Z,34.47
2018-03-03T04:01:08.604Z,41.67
2018-03-03T04:03:38.073Z,37.65
2018-03-03T04:06:06.720Z,36.72
2018-03-03T04:08:35.391Z,39.70
2018-03-03T04:11:04.032Z,35.78
2018-03-03T04:13:32.684Z,41.83
2018-03-03T04:16:01.345Z,42.05
2018-03-03T04:18:30.024Z,40.50
2018-03-03T04:20:58.693Z,44.08
2018-03-03T04:23:27.341Z,44.35
2018-03-03T04:25:55.820Z,35.72
2018-03-03T04:28:24.300Z,36.40
2018-03-03T04:30:52.763Z,32.20
2018-03-03T04:33:21.899Z,40.38
2018-03-03T04:35:50.367Z,37.92
2018-03-03T04:38:18.853Z,33.20
2018-03-03T04:40:47.497Z,36.92
2018-03-03T04:43:16.144Z,37.50
2018-03-03T04:45:44.785Z,34.88
2018-03-03T04:48:13.278Z,32.50
2018-03-03T04:50:41.737Z,38.90
2018-03-03T04:53:10.204Z,39.50
2018-03-03T04:55:38.673Z,38.80
2018-03-03T04:58:07.144Z,38.03
2018-03-03T05:00:37.364Z,40.80
2018-03-03T05:03:12.169Z,40.95
2018-03-03T05:05:46.269Z,40.58
2018-03-03T05:21:48.228Z,32.17
2018-03-03T05:24:22.389Z,32.50
2018-03-03T05:26:56.549Z,35.38
2018-03-03T05:29:42.818Z,36.72
2018-03-03T05:45:44.068Z,32.55
2018-03-03T05:48:14.437Z,34.00
2018-03-03T06:04:19.990Z,33.53
2018-03-03T06:06:54.289Z,35.33
2018-03-03T06:09:26.146Z,31.55
2018-03-03T06:11:55.729Z,32.25
2018-03-03T06:14:24.191Z,38.70
2018-03-03T06:16:52.847Z,39.85
2018-03-03T06:19:21.534Z,37.10
2018-03-03T06:21:50.208Z,40.40
2018-03-03T06:24:18.940Z,41.88
2018-03-03T06:26:47.610Z,35.08
2018-03-03T06:29:16.281Z,39.08
2018-03-03T06:31:45.027Z,36.83
2018-03-03T06:34:14.453Z,32.85
2018-03-03T06:36:43.119Z,33.90
2018-03-03T06:39:12.564Z,34.88
2018-03-03T06:41:41.277Z,33.83
2018-03-03T06:44:10.530Z,36.15
2018-03-03T06:46:39.197Z,35.38
2018-03-03T06:49:07.843Z,35.00
2018-03-03T06:51:36.494Z,34.42
2018-03-03T06:54:05.926Z,36.78
2018-03-03T06:56:34.580Z,40.05
2018-03-03T06:59:04.017Z,41.13
2018-03-03T07:01:32.664Z,35.17
2018-03-03T07:04:02.169Z,43.33
2018-03-03T07:06:31.640Z,39.65
2018-03-03T07:09:00.664Z,37.70
2018-03-03T07:11:30.084Z,39.55
2018-03-03T07:13:58.551Z,35.65
2018-03-03T07:16:27.046Z,38.40
2018-03-03T07:18:55.709Z,38.38
2018-03-03T07:21:25.763Z,37.10
2018-03-03T07:23:54.490Z,41.70
2018-03-03T07:26:23.172Z,39.80
2018-03-03T07:28:52.583Z,37.95
2018-03-03T07:31:21.234Z,41.53
2018-03-03T07:33:49.901Z,37.88
2018-03-03T07:36:18.561Z,35.85
2018-03-03T07:38:48.001Z,40.25
2018-03-03T07:41:16.752Z,38.65
2018-03-03T07:43:46.198Z,39.25
2018-03-03T07:46:14.924Z,46.17
2018-03-03T07:48:43.574Z,44.38
2018-03-03T07:51:12.047Z,43.13
2018-03-03T07:53:40.707Z,35.55
2018-03-03T07:56:09.366Z,36.65
2018-03-03T07:58:49.925Z,36.38
2018-03-03T08:01:18.640Z,37.85
2018-03-03T08:03:47.222Z,39.70
2018-03-03T08:06:15.609Z,45.37
2018-03-03T08:08:43.830Z,43.43
2018-03-03T08:11:12.980Z,41.37
2018-03-03T08:13:41.373Z,42.30
2018-03-03T08:16:09.755Z,43.10
2018-03-03T08:18:38.158Z,44.07
2018-03-03T08:21:07.375Z,39.83
2018-03-03T08:23:35.760Z,44.00
2018-03-03T08:26:04.153Z,41.63
2018-03-03T08:28:32.332Z,42.40
2018-03-03T08:31:00.719Z,41.50
2018-03-03T08:33:29.089Z,42.67
2018-03-03T08:35:57.481Z,39.50
2018-03-03T08:38:26.432Z,39.70
2018-03-03T08:40:54.820Z,41.07
2018-03-03T08:43:23.247Z,40.87
2018-03-03T08:45:51.870Z,41.30
2018-03-03T08:48:20.253Z,41.57
2018-03-03T08:50:48.621Z,40.03
2018-03-03T08:53:16.673Z,40.70
2018-03-03T08:55:45.909Z,42.00
2018-03-03T08:58:14.334Z,41.87
2018-03-03T09:00:42.726Z,43.13
2018-03-03T09:03:11.872Z,48.20
2018-03-03T09:05:40.251Z,47.10
2018-03-03T09:08:08.302Z,49.03
2018-03-03T09:10:36.709Z,51.23
2018-03-03T09:13:05.101Z,49.50
2018-03-03T09:15:33.794Z,48.40
2018-03-03T09:18:02.197Z,45.00
2018-03-03T09:20:31.345Z,49.70
2018-03-03T09:22:59.720Z,46.13
2018-03-03T09:25:28.093Z,46.23
2018-03-03T09:27:56.480Z,46.37
2018-03-03T09:30:24.869Z,42.80
2018-03-03T09:32:53.265Z,46.10
2018-03-03T09:35:21.321Z,45.57
2018-03-03T09:37:49.541Z,44.53
2018-03-03T09:40:17.944Z,46.50
2018-03-03T09:42:46.321Z,44.50
2018-03-03T09:45:14.903Z,47.83
2018-03-03T09:47:43.275Z,47.50
2018-03-03T09:50:11.485Z,45.63
2018-03-03T09:52:39.876Z,48.73
2018-03-03T09:55:08.333Z,45.57
2018-03-03T09:57:36.745Z,42.80
2018-03-03T10:00:05.135Z,44.50
2018-03-03T10:02:34.492Z,43.00
2018-03-03T10:05:02.906Z,41.60
2018-03-03T10:07:32.112Z,46.30
2018-03-03T10:10:01.271Z,37.80
2018-03-03T10:12:29.668Z,38.50
2018-03-03T10:14:58.072Z,39.60
2018-03-03T10:17:27.264Z,37.70
2018-03-03T10:19:56.464Z,39.30
2018-03-03T10:22:25.665Z,40.10
2018-03-03T10:24:54.823Z,39.60
2018-03-03T10:27:23.224Z,40.17
2018-03-03T10:29:51.625Z,38.53
2018-03-03T10:32:20.760Z,35.13
2018-03-03T10:34:49.176Z,38.50
2018-03-03T10:37:19.507Z,33.77
2018-03-03T10:39:47.919Z,39.00
2018-03-03T10:42:16.496Z,36.90
2018-03-03T10:44:44.868Z,35.77
2018-03-03T10:47:14.028Z,34.90
2018-03-03T10:49:42.483Z,36.57
2018-03-03T10:52:11.377Z,32.20
2018-03-03T10:54:40.520Z,35.47
2018-03-03T10:57:09.660Z,36.00
2018-03-03T10:59:38.039Z,31.87
2018-03-03T11:02:06.263Z,29.93
2018-03-03T11:04:35.509Z,29.00
2018-03-03T11:07:04.814Z,27.90
2018-03-03T11:09:33.221Z,29.17
2018-03-03T11:12:01.592Z,32.67
2018-03-03T11:14:30.119Z,34.60
2018-03-03T11:16:58.516Z,33.30
2018-03-03T11:19:26.895Z,34.23
2018-03-03T11:21:55.285Z,36.40
2018-03-03T11:24:23.738Z,33.90
2018-03-03T11:26:52.146Z,35.00
2018-03-03T11:29:20.556Z,36.23
2018-03-03T11:31:49.024Z,31.07
2018-03-03T11:34:17.404Z,34.83
2018-03-03T11:36:45.833Z,36.87
2018-03-03T11:39:14.226Z,35.30
2018-03-03T11:41:42.627Z,34.37
2018-03-03T11:44:11.067Z,38.87
2018-03-03T11:46:39.485Z,37.63
2018-03-03T11:49:07.909Z,38.40
2018-03-03T11:51:37.051Z,41.40
2018-03-03T11:54:05.617Z,40.87
2018-03-03T11:56:34.052Z,43.63
2018-03-03T11:59:02.940Z,43.63
2018-03-03T12:01:31.176Z,47.03
2018-03-03T12:03:59.557Z,42.43
2018-03-03T12:06:27.956Z,44.00
2018-03-03T12:08:56.351Z,42.00
2018-03-03T12:11:24.857Z,50.23
2018-03-03T12:13:53.371Z,51.27
2018-03-03T12:16:21.760Z,45.30
2018-03-03T12:18:50.194Z,50.70
2018-03-03T12:21:18.609Z,49.20
2018-03-03T12:23:47.185Z,46.87
2018-03-03T12:26:15.870Z,51.37
2018-03-03T12:28:44.328Z,49.87
2018-03-03T12:31:12.912Z,49.37
2018-03-03T12:33:41.532Z,48.83
2018-03-03T12:36:11.432Z,53.07
2018-03-03T12:38:43.934Z,48.03
2018-03-03T12:41:12.373Z,44.43
2018-03-03T12:43:40.868Z,45.80
2018-03-03T12:46:09.264Z,50.07
2018-03-03T12:48:37.455Z,47.60
2018-03-03T12:51:05.670Z,48.40
2018-03-03T12:53:34.220Z,50.97
2018-03-03T12:56:02.722Z,52.03
2018-03-03T12:58:31.363Z,50.47
2018-03-03T13:01:00.613Z,52.63
2018-03-03T13:03:29.015Z,53.47
2018-03-03T13:05:57.396Z,54.53
2018-03-03T13:08:25.774Z,54.63
2018-03-03T13:10:54.486Z,53.50
2018-03-03T13:13:23.001Z,52.67
2018-03-03T13:15:51.540Z,55.03
2018-03-03T13:18:19.912Z,57.67
2018-03-03T13:20:48.395Z,56.83
2018-03-03T13:23:16.824Z,58.73
2018-03-03T13:25:46.169Z,56.67
2018-03-03T13:28:15.941Z,57.50
2018-03-03T13:30:44.350Z,60.43
2018-03-03T13:33:12.849Z,57.57
2018-03-03T13:35:41.255Z,63.47
2018-03-03T13:38:09.840Z,60.87
2018-03-03T13:40:38.228Z,71.03
2018-03-03T13:43:07.546Z,55.90
2018-03-03T13:45:36.337Z,61.87
2018-03-03T13:48:05.098Z,55.43
2018-03-03T13:50:34.432Z,52.87
2018-03-03T13:53:02.852Z,58.67
2018-03-03T13:55:32.068Z,49.83
2018-03-03T13:58:00.649Z,52.60
2018-03-03T14:00:29.143Z,46.87
2018-03-03T14:02:58.320Z,57.40
2018-03-03T14:05:26.811Z,45.60
2018-03-03T14:07:55.324Z,49.93
2018-03-03T14:10:23.728Z,45.07
2018-03-03T14:12:52.205Z,46.03
2018-03-03T14:15:20.788Z,47.30
2018-03-03T14:17:49.174Z,52.03
2018-03-03T14:20:18.800Z,47.50
2018-03-03T14:22:47.204Z,46.80
2018-03-03T14:25:15.577Z,50.70
2018-03-03T14:27:43.956Z,53.53
2018-03-03T14:30:13.127Z,48.03
2018-03-03T14:32:41.565Z,53.93
2018-03-03T14:35:10.045Z,49.63
2018-03-03T14:37:38.425Z,47.20
2018-03-03T14:40:07.615Z,46.90
2018-03-03T14:42:36.005Z,47.03
2018-03-03T14:45:04.457Z,47.50
2018-03-03T14:47:33.693Z,49.53
2018-03-03T14:50:04.989Z,44.10
2018-03-03T14:52:33.397Z,43.13
2018-03-03T14:55:01.854Z,50.87
2018-03-03T14:57:31.026Z,44.97
2018-03-03T14:59:59.437Z,45.67
2018-03-03T15:02:28.651Z,44.20
2018-03-03T15:04:57.045Z,46.87
2018-03-03T15:07:25.412Z,49.80
2018-03-03T15:09:53.795Z,46.30
2018-03-03T15:12:22.962Z,48.50
2018-03-03T15:14:52.148Z,43.40
2018-03-03T15:17:20.570Z,39.00
2018-03-03T15:19:48.970Z,39.47
2018-03-03T15:22:17.585Z,49.80
2018-03-03T15:24:45.964Z,50.67
2018-03-03T15:27:14.389Z,46.27
2018-03-03T15:29:42.768Z,41.90
2018-03-03T15:32:11.322Z,42.73
2018-03-03T15:34:40.480Z,44.60
2018-03-03T15:37:08.903Z,44.00
2018-03-03T15:39:38.047Z,39.80
2018-03-03T15:42:06.610Z,42.50
2018-03-03T15:44:35.001Z,38.70
2018-03-03T15:47:03.370Z,42.37
2018-03-03T15:49:31.748Z,43.80
2018-03-03T15:52:00.149Z,39.37
2018-03-03T15:54:28.535Z,34.27
2018-03-03T15:56:56.914Z,39.63
2018-03-03T15:59:25.294Z,41.47
2018-03-03T16:01:53.739Z,43.47
2018-03-03T16:04:22.131Z,41.27
2018-03-03T16:06:50.538Z,42.57
2018-03-03T16:09:18.950Z,44.60
2018-03-03T16:11:48.236Z,41.40
2018-03-03T16:14:17.783Z,43.87
2018-03-03T16:16:46.441Z,41.07
2018-03-03T16:19:15.578Z,45.90
2018-03-03T16:21:43.961Z,37.57
2018-03-03T16:24:13.085Z,40.80
2018-03-03T16:26:41.289Z,41.33
2018-03-03T16:29:09.733Z,41.50
2018-03-03T16:31:39.011Z,42.40
2018-03-03T16:34:07.723Z,37.17
2018-03-03T16:36:36.126Z,30.47
2018-03-03T16:39:04.690Z,38.23
2018-03-03T16:41:33.376Z,39.87
2018-03-03T16:44:02.523Z,38.13
2018-03-03T16:46:30.925Z,37.40
2018-03-03T16:48:59.556Z,37.53
2018-03-03T16:51:28.215Z,34.60
2018-03-03T16:53:56.814Z,38.47
2018-03-03T16:56:26.046Z,35.80
2018-03-03T16:58:54.453Z,38.53
2018-03-03T17:01:22.832Z,42.70
2018-03-03T17:03:52.276Z,35.53
2018-03-03T17:06:20.685Z,40.20
2018-03-03T17:08:49.062Z,39.20
2018-03-03T17:11:17.475Z,28.07
2018-03-03T17:13:45.891Z,40.13
2018-03-03T17:16:15.040Z,37.73
2018-03-03T17:18:44.188Z,36.27
2018-03-03T17:21:13.348Z,36.50
2018-03-03T17:23:41.726Z,30.17
2018-03-03T17:26:10.118Z,29.67
2018-03-03T17:28:38.501Z,38.20
2018-03-03T17:31:08.238Z,31.05
2018-03-03T17:33:36.608Z,25.67
2018-03-03T17:36:05.318Z,34.78
2018-03-03T17:38:34.744Z,36.40
2018-03-03T17:41:03.149Z,36.10
2018-03-03T17:43:32.326Z,36.70
2018-03-03T17:46:00.982Z,29.60
2018-03-03T17:48:29.408Z,29.70
2018-03-03T17:50:57.788Z,23.90
2018-03-03T17:53:26.175Z,34.30
2018-03-03T17:55:54.852Z,18.23
2018-03-03T17:58:23.489Z,25.75
2018-03-03T18:00:52.722Z,26.87
2018-03-03T18:03:21.470Z,27.05
2018-03-03T18:05:50.908Z,31.27
2018-03-03T18:08:19.286Z,30.70
2018-03-03T18:10:48.228Z,36.65
2018-03-03T18:13:37.026Z,36.30
2018-03-03T18:16:05.685Z,38.83
2018-03-03T18:18:35.097Z,35.50
2018-03-03T18:21:03.749Z,38.15
2018-03-03T18:23:32.502Z,34.70
2018-03-03T18:26:01.154Z,35.95
2018-03-03T18:28:29.942Z,32.85
2018-03-03T18:30:58.618Z,35.88
2018-03-03T18:33:27.492Z,37.00
2018-03-03T18:35:56.136Z,34.00
2018-03-03T18:38:24.792Z,33.78
2018-03-03T18:40:54.204Z,33.60
2018-03-03T18:43:22.865Z,31.98
2018-03-03T18:45:51.524Z,38.08
2018-03-03T18:48:20.029Z,30.70
2018-03-03T18:50:48.418Z,36.50
2018-03-03T18:53:16.890Z,37.63
2018-03-03T18:55:46.372Z,37.15
2018-03-03T18:58:14.747Z,37.33
2018-03-03T19:00:43.132Z,34.20
2018-03-03T19:03:11.652Z,33.27
2018-03-03T19:05:40.325Z,35.28
2018-03-03T19:08:08.716Z,34.00
2018-03-03T19:10:37.354Z,38.83
2018-03-03T19:13:06.010Z,35.33
2018-03-03T19:15:34.660Z,37.40
2018-03-03T19:18:03.332Z,38.38
2018-03-03T19:20:32.835Z,32.08
2018-03-03T19:23:01.533Z,33.90
2018-03-03T19:25:30.223Z,34.22
2018-03-03T19:27:58.910Z,36.45
2018-03-03T19:30:27.686Z,36.97
2018-03-03T19:32:56.106Z,33.30
2018-03-03T19:35:24.524Z,35.70
2018-03-03T19:37:54.113Z,34.60
2018-03-03T19:40:22.521Z,37.10
2018-03-03T19:42:50.983Z,37.47
2018-03-03T19:45:19.625Z,36.78
2018-03-03T19:47:48.326Z,33.53
2018-03-03T19:50:17.076Z,39.67
2018-03-03T19:52:45.583Z,39.10
2018-03-03T19:55:13.992Z,39.43
2018-03-03T19:57:43.537Z,40.00
2018-03-03T20:00:12.110Z,38.20
2018-03-03T20:02:40.561Z,38.00
2018-03-03T20:05:09.233Z,40.20
2018-03-03T20:07:38.374Z,38.87
2018-03-03T20:10:06.765Z,39.93
2018-03-03T20:12:35.699Z,41.00
2018-03-03T20:15:03.808Z,36.90
2018-03-03T20:17:32.193Z,36.90
2018-03-03T20:20:00.232Z,35.37
2018-03-03T20:22:29.573Z,36.83
2018-03-03T20:24:58.081Z,37.83
2018-03-03T20:27:26.961Z,35.30
2018-03-03T20:29:56.266Z,38.50
2018-03-03T20:32:25.731Z,37.13
2018-03-03T20:34:53.936Z,39.80
2018-03-03T20:37:22.344Z,36.10
2018-03-03T20:39:51.505Z,38.77
2018-03-03T20:42:19.888Z,39.33
2018-03-03T20:44:48.404Z,35.17
2018-03-03T20:47:17.811Z,38.10
2018-03-03T20:49:46.243Z,32.80
2018-03-03T20:52:14.622Z,34.70
2018-03-03T20:54:43.051Z,37.03
2018-03-03T20:57:11.441Z,36.03
2018-03-03T20:59:40.148Z,36.80
2018-03-03T21:02:08.660Z,26.70
2018-03-03T21:04:37.035Z,24.30
2018-03-03T21:07:05.436Z,21.10
2018-03-03T21:09:33.808Z,21.60
2018-03-03T21:12:11.932Z,21.63
2018-03-03T21:14:41.065Z,20.87
2018-03-03T21:17:09.491Z,23.50
2018-03-03T21:19:37.884Z,20.37
2018-03-03T21:22:07.033Z,21.20
2018-03-03T21:24:35.421Z,22.43
2018-03-03T21:27:03.808Z,9.10
2018-03-03T21:29:32.212Z,24.40
2018-03-03T21:32:01.351Z,22.00
2018-03-03T21:34:30.832Z,19.47
2018-03-03T21:36:59.217Z,19.27
2018-03-03T21:39:27.595Z,21.90
2018-03-03T21:41:56.095Z,17.20
2018-03-03T21:44:24.508Z,18.97
2018-03-03T21:46:53.060Z,16.43
2018-03-03T21:49:21.428Z,17.10
2018-03-03T21:51:50.013Z,16.40
2018-03-03T21:54:18.385Z,16.00
2018-03-03T21:56:46.872Z,15.50
2018-03-03T21:59:15.263Z,10.33
2018-03-03T22:01:43.625Z,11.10
2018-03-03T22:04:12.006Z,6.40
2018-03-03T22:06:40.421Z,12.23
2018-03-03T22:09:08.823Z,18.07
2018-03-03T22:11:38.062Z,12.10
2018-03-03T22:14:06.440Z,12.80
2018-03-03T22:16:34.823Z,10.90
2018-03-03T22:19:03.222Z,14.00
2018-03-03T22:21:31.492Z,11.17
2018-03-03T22:23:59.889Z,14.40
2018-03-03T22:26:28.284Z,11.93
2018-03-03T22:28:57.417Z,5.47
2018-03-03T22:31:25.816Z,12.23
2018-03-03T22:33:54.236Z,10.80
2018-03-03T22:36:23.378Z,8.23
2018-03-03T22:38:52.645Z,13.20
2018-03-03T22:41:21.776Z,5.63
2018-03-03T22:43:50.171Z,6.50
2018-03-03T22:46:21.194Z,11.43
2018-03-03T22:48:49.582Z,11.67
2018-03-03T22:51:18.088Z,12.47
2018-03-03T22:53:46.448Z,8.87
2018-03-03T22:56:14.840Z,11.30
2018-03-03T22:58:43.225Z,11.03
2018-03-03T23:01:11.614Z,6.40
2018-03-03T23:03:40.033Z,12.27
2018-03-03T23:06:08.557Z,10.87
2018-03-03T23:08:37.020Z,9.63
2018-03-03T23:11:05.406Z,6.20
2018-03-03T23:13:33.855Z,7.43
2018-03-03T23:16:03.731Z,12.20
2018-03-03T23:18:32.110Z,12.90
2018-03-03T23:21:00.492Z,12.00
2018-03-03T23:23:28.693Z,11.70
2018-03-03T23:25:57.826Z,13.00
2018-03-03T23:28:26.252Z,12.77
2018-03-03T23:30:55.409Z,12.80
2018-03-03T23:33:23.780Z,13.10
2018-03-03T23:35:52.228Z,13.47
2018-03-03T23:38:20.628Z,12.47
2018-03-03T23:40:49.032Z,13.00
2018-03-03T23:43:17.408Z,11.97
2018-03-03T23:45:45.802Z,13.40
2018-03-03T23:48:14.184Z,15.73
2018-03-03T23:50:42.576Z,14.20
2018-03-03T23:53:10.970Z,11.77
2018-03-03T23:55:40.184Z,14.10
2018-03-03T23:58:08.554Z,13.27
